This is the latest recevied weather packets stored in our database for station/object HS5NMF. If no packets are shown the sender has not sent any weather packets the latest 10 day(s).
| Time | Temp. | Humidity | Pressure | Rain* | Wind** | Luminosity | Snow |
|---|---|---|---|---|---|---|---|
| 1777075243 | 28.89° C | 76% | 980 hPa | - | - | 0 W/m² | - |
| 1777074924 | 28.89° C | 77% | 980 hPa | - | - | 0 W/m² | - |
| 1777074597 | 28.33° C | 79% | 979 hPa | - | - | 0 W/m² | - |
| 1777074275 | 28.89° C | 75% | 979 hPa | - | - | 0 W/m² | - |
| 1777073952 | 28.89° C | 77% | 979 hPa | - | - | 0 W/m² | - |
| 1777073627 | 28.89° C | 75% | 979 hPa | - | - | 0 W/m² | - |
| 1777073306 | 28.89° C | 77% | 979 hPa | - | - | 0 W/m² | - |
| 1777072982 | 28.89° C | 75% | 979 hPa | - | - | 0 W/m² | - |
| 1777072661 | 28.33° C | 77% | 979 hPa | - | - | 0 W/m² | - |
| 1777072336 | 28.89° C | 77% | 979 hPa | - | - | 0 W/m² | - |
| 1777072014 | 28.89° C | 76% | 979 hPa | - | - | 0 W/m² | - |
| 1777071691 | 28.89° C | 78% | 979 hPa | - | - | 0 W/m² | - |
| 1777071369 | 28.89° C | 78% | 979 hPa | - | - | 0 W/m² | - |
| 1777071045 | 29.44° C | 76% | 979 hPa | - | - | 0 W/m² | - |
| 1777070723 | 29.44° C | 78% | 979 hPa | - | - | 0 W/m² | - |
| 1777070400 | 29.44° C | 77% | 979 hPa | - | - | 0 W/m² | - |
| 1777070080 | 30° C | 75% | 978 hPa | - | - | 0 W/m² | - |
| 1777069754 | 30° C | 77% | 978 hPa | - | - | 0 W/m² | - |
| 1777069432 | 29.44° C | 78% | 978 hPa | - | - | 0 W/m² | - |
| 1777069110 | 29.44° C | 80% | 978 hPa | - | - | 0 W/m² | - |
| 1777068785 | 29.44° C | 78% | 978 hPa | - | - | 0 W/m² | - |
| 1777068462 | 29.44° C | 79% | 978 hPa | - | - | 0 W/m² | - |
| 1777068138 | 29.44° C | 79% | 978 hPa | - | - | 0 W/m² | - |
| 1777067815 | 29.44° C | 78% | 978 hPa | - | - | 0 W/m² | - |
| 1777067492 | 29.44° C | 79% | 978 hPa | - | - | 0 W/m² | - |
* Rain since midnight (hover to see other rain measurements)
** Current wind speed in m/s (hover to see current wind gust speed)